createdAt,value
2023-05-26T00:02:31.125Z,6.43
2023-05-26T00:05:36.683Z,6.37
2023-05-26T00:08:40.088Z,4.97
2023-05-26T00:11:42.506Z,5.88
2023-05-26T00:14:44.964Z,5.43
2023-05-26T00:17:48.500Z,5.10
2023-05-26T00:20:50.985Z,5.17
2023-05-26T00:23:53.393Z,5.03
2023-05-26T00:26:55.857Z,5.65
2023-05-26T00:29:59.407Z,5.03
2023-05-26T00:33:02.100Z,4.68
2023-05-26T00:36:04.705Z,5.10
2023-05-26T00:39:07.279Z,4.97
2023-05-26T00:42:12.647Z,6.10
2023-05-26T00:45:15.283Z,5.30
2023-05-26T00:48:19.017Z,5.53
2023-05-26T00:51:22.081Z,5.10
2023-05-26T00:54:24.790Z,4.63
2023-05-26T00:57:29.116Z,4.70
2023-05-26T01:00:32.106Z,4.90
2023-05-26T01:03:35.380Z,5.32
2023-05-26T01:06:43.126Z,4.50
2023-05-26T01:09:45.693Z,5.13
2023-05-26T01:12:58.359Z,5.20
2023-05-26T01:16:08.090Z,5.63
2023-05-26T01:19:35.997Z,5.90
2023-05-26T01:22:49.306Z,6.00
2023-05-26T01:26:13.692Z,4.93
2023-05-26T01:29:17.586Z,4.88
2023-05-26T01:32:21.398Z,5.07
2023-05-26T01:35:24.924Z,4.32
2023-05-26T01:38:27.461Z,5.23
2023-05-26T01:41:44.219Z,5.30
2023-05-26T01:44:52.220Z,5.85
2023-05-26T01:47:57.131Z,5.35
2023-05-26T01:51:02.406Z,5.70
2023-05-26T01:54:09.925Z,5.43
2023-05-26T01:57:14.111Z,5.37
2023-05-26T02:00:25.147Z,5.15
2023-05-26T02:03:27.806Z,5.00
2023-05-26T02:06:30.566Z,5.30
2023-05-26T02:09:33.437Z,4.73
2023-05-26T02:12:37.613Z,4.43
2023-05-26T02:15:40.450Z,5.60
2023-05-26T02:18:47.034Z,4.30
2023-05-26T02:21:49.977Z,5.20
2023-05-26T02:24:55.847Z,5.70
2023-05-26T02:27:58.236Z,4.30
2023-05-26T02:31:00.779Z,4.70
2023-05-26T02:34:05.880Z,4.57
2023-05-26T02:37:08.382Z,4.90
2023-05-26T02:40:11.264Z,4.57
2023-05-26T02:43:13.760Z,4.40
2023-05-26T02:46:16.414Z,4.70
2023-05-26T02:49:22.252Z,4.65
2023-05-26T02:52:24.870Z,5.22
2023-05-26T02:55:27.309Z,4.80
2023-05-26T02:58:29.697Z,4.80
2023-05-26T03:01:33.337Z,4.45
2023-05-26T03:04:36.004Z,5.50
2023-05-26T03:07:38.380Z,4.32
2023-05-26T03:10:41.223Z,4.20
2023-05-26T03:13:44.532Z,4.13
2023-05-26T03:16:47.364Z,4.80
2023-05-26T03:19:49.831Z,5.38
2023-05-26T03:22:53.087Z,4.90
2023-05-26T03:25:57.259Z,4.43
2023-05-26T03:29:01.056Z,4.73
2023-05-26T03:32:03.607Z,4.85
2023-05-26T03:35:07.210Z,4.18
2023-05-26T03:38:09.615Z,4.75
2023-05-26T03:41:14.279Z,4.73
2023-05-26T03:44:27.728Z,5.13
2023-05-26T03:47:30.193Z,5.43
2023-05-26T03:50:32.672Z,4.20
2023-05-26T03:53:35.360Z,8.23
2023-05-26T03:56:39.416Z,4.07
2023-05-26T03:59:42.240Z,4.27
2023-05-26T04:02:45.450Z,5.50
2023-05-26T04:05:48.843Z,4.25
2023-05-26T04:08:51.261Z,5.70
2023-05-26T04:11:53.766Z,4.37
2023-05-26T04:14:56.408Z,7.03
2023-05-26T04:17:58.913Z,6.50
2023-05-26T04:21:01.540Z,6.53
2023-05-26T04:24:04.490Z,6.18
2023-05-26T04:27:08.934Z,6.43
2023-05-26T04:30:40.330Z,6.53
2023-05-26T04:33:51.802Z,6.45
2023-05-26T04:37:27.683Z,6.70
2023-05-26T04:40:33.298Z,5.22
2023-05-26T04:43:36.244Z,4.90
2023-05-26T04:46:39.229Z,8.13
2023-05-26T04:49:43.650Z,6.43
2023-05-26T04:52:46.400Z,7.07
2023-05-26T04:55:49.008Z,6.35
2023-05-26T04:58:53.309Z,8.17
2023-05-26T05:01:55.973Z,6.27
2023-05-26T05:05:09.354Z,7.43
2023-05-26T05:08:11.865Z,6.68
2023-05-26T05:11:14.459Z,5.50
2023-05-26T05:14:18.952Z,9.50
2023-05-26T05:17:22.696Z,4.70
2023-05-26T05:20:28.277Z,8.20
2023-05-26T05:23:35.396Z,13.95
2023-05-26T05:26:40.421Z,10.05
2023-05-26T05:29:44.007Z,11.40
2023-05-26T05:32:46.820Z,10.07
2023-05-26T05:35:54.216Z,9.88
2023-05-26T05:38:56.902Z,12.25
2023-05-26T05:41:59.552Z,12.07
2023-05-26T05:45:03.448Z,8.43
2023-05-26T05:48:26.340Z,11.77
2023-05-26T05:51:35.276Z,11.63
2023-05-26T05:54:38.183Z,9.73
2023-05-26T05:57:44.287Z,13.57
2023-05-26T06:00:47.964Z,15.33
2023-05-26T06:03:54.799Z,13.73
2023-05-26T06:06:58.629Z,13.05
2023-05-26T06:10:02.150Z,11.55
2023-05-26T06:13:05.090Z,10.45
2023-05-26T06:16:08.346Z,10.33
2023-05-26T06:19:11.195Z,10.50
2023-05-26T06:22:14.906Z,14.80
2023-05-26T06:25:17.664Z,15.25
2023-05-26T06:28:20.514Z,19.23
2023-05-26T06:31:23.930Z,23.30
2023-05-26T06:34:33.762Z,18.40
2023-05-26T06:37:36.275Z,16.67
2023-05-26T06:40:38.796Z,15.07
2023-05-26T06:43:42.131Z,11.18
2023-05-26T06:46:45.562Z,19.97
2023-05-26T06:50:02.705Z,20.33
2023-05-26T06:53:06.579Z,13.30
2023-05-26T06:56:09.152Z,11.98
2023-05-26T06:59:13.598Z,11.32
2023-05-26T07:02:16.249Z,14.37
2023-05-26T07:05:19.466Z,11.80
2023-05-26T07:08:25.224Z,14.75
2023-05-26T07:11:30.152Z,13.50
2023-05-26T07:14:37.899Z,12.25
2023-05-26T07:17:41.150Z,10.20
2023-05-26T07:20:43.968Z,13.50
2023-05-26T07:23:49.787Z,11.55
2023-05-26T07:26:54.255Z,10.15
2023-05-26T07:29:56.708Z,14.00
2023-05-26T07:32:59.270Z,12.20
2023-05-26T07:36:02.110Z,9.00
2023-05-26T07:39:04.980Z,9.05
2023-05-26T07:42:07.829Z,15.52
2023-05-26T07:45:11.114Z,10.93
2023-05-26T07:48:16.316Z,11.97
2023-05-26T07:51:18.908Z,11.63
2023-05-26T07:54:21.359Z,14.77
2023-05-26T07:57:30.145Z,15.73
2023-05-26T08:00:33.167Z,16.38
2023-05-26T08:03:35.956Z,23.13
2023-05-26T08:06:39.779Z,18.13
2023-05-26T08:09:42.474Z,23.98
2023-05-26T08:12:45.341Z,20.70
2023-05-26T08:15:48.237Z,29.13
2023-05-26T08:18:50.977Z,23.07
2023-05-26T08:21:53.889Z,28.73
2023-05-26T08:24:56.595Z,30.73
2023-05-26T08:27:59.015Z,29.90
2023-05-26T08:31:01.709Z,31.08
2023-05-26T08:34:04.178Z,35.47
2023-05-26T08:37:06.599Z,37.00
2023-05-26T08:40:11.013Z,31.38
2023-05-26T08:43:15.479Z,40.83
2023-05-26T08:46:18.219Z,31.33
2023-05-26T08:49:22.013Z,39.77
2023-05-26T08:52:24.718Z,31.50
2023-05-26T08:55:28.440Z,35.08
2023-05-26T08:58:34.929Z,40.85
2023-05-26T09:01:38.062Z,36.03
2023-05-26T09:04:40.724Z,29.93
2023-05-26T09:07:43.122Z,27.13
2023-05-26T09:10:45.895Z,32.33
2023-05-26T09:13:58.556Z,34.45
2023-05-26T09:17:01.202Z,31.17
2023-05-26T09:20:07.200Z,29.63
2023-05-26T09:23:10.313Z,26.93
2023-05-26T09:26:12.779Z,25.02
2023-05-26T09:29:16.187Z,31.67
2023-05-26T09:32:18.776Z,30.67
2023-05-26T09:35:23.047Z,16.53
2023-05-26T09:38:25.607Z,16.00
2023-05-26T09:41:41.108Z,15.05
2023-05-26T09:44:51.744Z,19.05
2023-05-26T09:47:57.650Z,26.55
2023-05-26T09:51:00.219Z,20.77
2023-05-26T09:54:03.475Z,19.50
2023-05-26T09:57:12.874Z,26.65
2023-05-26T10:00:19.238Z,25.33
2023-05-26T10:03:22.697Z,24.38
2023-05-26T10:06:25.651Z,36.80
2023-05-26T10:09:33.337Z,29.03
2023-05-26T10:12:36.648Z,35.13
2023-05-26T10:15:39.337Z,23.98
2023-05-26T10:18:41.786Z,22.10
2023-05-26T10:21:49.438Z,21.20
2023-05-26T10:25:03.252Z,25.30
2023-05-26T10:28:28.868Z,29.38
2023-05-26T10:31:33.077Z,21.25
2023-05-26T10:34:40.503Z,25.00
2023-05-26T10:37:49.407Z,21.00
2023-05-26T10:40:52.453Z,19.53
2023-05-26T10:43:55.462Z,18.60
2023-05-26T10:47:05.849Z,18.88
2023-05-26T10:50:11.131Z,19.50
2023-05-26T10:53:22.160Z,31.90
2023-05-26T10:56:42.008Z,32.23
2023-05-26T10:59:44.454Z,25.67
2023-05-26T11:02:47.153Z,17.95
2023-05-26T11:05:58.224Z,17.75
2023-05-26T11:09:03.888Z,16.87
2023-05-26T11:12:07.689Z,17.03
2023-05-26T11:15:27.340Z,23.40
2023-05-26T11:18:31.154Z,19.65
2023-05-26T11:21:35.904Z,20.95
2023-05-26T11:24:38.421Z,23.10
2023-05-26T11:27:46.763Z,22.93
2023-05-26T11:30:49.288Z,14.75
2023-05-26T11:33:51.690Z,21.35
2023-05-26T11:36:55.246Z,16.02
2023-05-26T11:39:59.011Z,18.47
2023-05-26T11:43:01.485Z,14.87
2023-05-26T11:46:07.326Z,13.40
2023-05-26T11:49:17.046Z,18.85
2023-05-26T11:52:24.289Z,17.88
2023-05-26T11:55:26.795Z,16.60
2023-05-26T11:58:29.301Z,18.17
2023-05-26T12:01:32.784Z,12.55
2023-05-26T12:04:35.426Z,16.65
2023-05-26T12:07:37.957Z,16.55
2023-05-26T12:10:43.524Z,23.73
2023-05-26T12:13:46.533Z,19.90
2023-05-26T12:16:54.948Z,25.50
2023-05-26T12:19:57.524Z,20.50
2023-05-26T12:23:03.677Z,18.27
2023-05-26T12:26:21.398Z,24.45
2023-05-26T12:29:23.805Z,20.77
2023-05-26T12:32:26.250Z,21.33
2023-05-26T12:35:28.689Z,24.48
2023-05-26T12:38:43.469Z,25.10
2023-05-26T12:41:46.898Z,18.27
2023-05-26T12:44:49.348Z,26.67
2023-05-26T12:47:51.888Z,25.63
2023-05-26T12:50:54.345Z,25.58
2023-05-26T12:53:56.807Z,15.02
2023-05-26T12:56:59.270Z,21.20
2023-05-26T13:00:01.715Z,20.50
2023-05-26T13:03:05.063Z,19.58
2023-05-26T13:06:10.226Z,17.75
2023-05-26T13:09:13.721Z,19.75
2023-05-26T13:12:16.176Z,18.40
2023-05-26T13:15:19.569Z,20.33
2023-05-26T13:18:26.073Z,24.27
2023-05-26T13:21:29.228Z,18.75
2023-05-26T13:24:31.655Z,20.92
2023-05-26T13:27:34.095Z,19.53
2023-05-26T13:30:36.501Z,18.30
2023-05-26T13:33:38.881Z,22.85
2023-05-26T13:36:41.612Z,18.75
2023-05-26T13:39:44.103Z,18.17
2023-05-26T13:42:47.838Z,22.53
2023-05-26T13:45:54.494Z,27.03
2023-05-26T13:48:57.424Z,15.63
2023-05-26T13:52:05.253Z,19.75
2023-05-26T13:55:08.457Z,27.77
2023-05-26T13:58:19.979Z,19.63
2023-05-26T14:01:36.118Z,20.47
2023-05-26T14:04:43.711Z,18.10
2023-05-26T14:07:47.115Z,20.60
2023-05-26T14:10:52.083Z,21.23
2023-05-26T14:13:55.390Z,18.90
2023-05-26T14:16:58.077Z,16.93
2023-05-26T14:20:07.252Z,19.40
2023-05-26T14:23:10.906Z,16.42
2023-05-26T14:26:13.868Z,17.67
2023-05-26T14:29:16.407Z,17.23
2023-05-26T14:32:18.871Z,20.23
2023-05-26T14:35:21.270Z,17.67
2023-05-26T14:38:23.772Z,21.50
2023-05-26T14:41:27.163Z,19.85
2023-05-26T14:44:29.626Z,13.20
2023-05-26T14:47:32.103Z,16.13
2023-05-26T14:50:34.626Z,19.10
2023-05-26T14:53:37.252Z,17.15
2023-05-26T14:56:39.902Z,16.70
2023-05-26T14:59:42.472Z,19.53
2023-05-26T15:02:45.974Z,16.90
2023-05-26T15:05:48.712Z,16.80
2023-05-26T15:08:51.272Z,14.85
2023-05-26T15:11:53.653Z,16.13
2023-05-26T15:14:57.450Z,16.63
2023-05-26T15:17:59.859Z,11.40
2023-05-26T15:21:03.887Z,18.05
2023-05-26T15:24:07.947Z,12.52
2023-05-26T15:27:11.365Z,15.52
2023-05-26T15:33:22.532Z,17.13
2023-05-26T15:36:26.213Z,21.20
2023-05-26T15:39:28.936Z,16.48
2023-05-26T15:42:31.392Z,14.00
2023-05-26T15:45:33.887Z,12.93
2023-05-26T15:48:36.695Z,12.93
2023-05-26T15:51:39.204Z,13.32
2023-05-26T15:54:41.771Z,13.45
2023-05-26T15:57:44.203Z,13.63
2023-05-26T16:00:46.704Z,16.40
2023-05-26T16:03:49.328Z,13.93
2023-05-26T16:06:51.866Z,15.60
2023-05-26T16:09:54.343Z,15.65
2023-05-26T16:12:56.801Z,17.00
2023-05-26T16:16:00.630Z,12.47
2023-05-26T16:19:03.134Z,15.67
2023-05-26T16:22:05.576Z,14.38
2023-05-26T16:25:08.560Z,14.60
2023-05-26T16:28:10.988Z,10.95
2023-05-26T16:31:13.662Z,12.70
2023-05-26T16:34:16.281Z,13.53
2023-05-26T16:37:19.124Z,11.85
2023-05-26T16:40:21.539Z,12.77
2023-05-26T16:46:34.308Z,14.20
2023-05-26T16:49:36.715Z,15.90
2023-05-26T16:52:39.097Z,11.55
2023-05-26T16:55:41.515Z,13.40
2023-05-26T16:58:43.964Z,12.68
2023-05-26T17:01:46.464Z,9.57
2023-05-26T17:04:48.864Z,13.57
2023-05-26T17:07:51.522Z,11.95
2023-05-26T17:10:56.165Z,9.65
2023-05-26T17:13:58.842Z,11.88
2023-05-26T17:17:04.608Z,10.63
2023-05-26T17:20:08.510Z,12.30
2023-05-26T17:23:12.623Z,10.00
2023-05-26T17:26:15.100Z,9.88
2023-05-26T17:29:17.673Z,11.38
2023-05-26T17:32:20.108Z,10.30
2023-05-26T17:35:23.047Z,10.90
2023-05-26T17:38:25.572Z,12.20
2023-05-26T17:41:27.933Z,11.00
2023-05-26T17:44:30.457Z,10.00
2023-05-26T17:47:32.893Z,10.00
2023-05-26T17:50:36.018Z,11.70
2023-05-26T17:53:38.617Z,11.30
2023-05-26T17:56:41.706Z,9.75
2023-05-26T17:59:44.172Z,12.88
2023-05-26T18:02:46.654Z,16.20
2023-05-26T18:05:49.171Z,11.67
2023-05-26T18:08:53.685Z,12.35
2023-05-26T18:11:56.047Z,9.50
2023-05-26T18:14:58.427Z,11.10
2023-05-26T18:18:01.348Z,10.10
2023-05-26T18:21:04.157Z,11.40
2023-05-26T18:24:07.259Z,10.27
2023-05-26T18:27:09.817Z,12.35
2023-05-26T18:30:15.846Z,8.32
2023-05-26T18:33:18.317Z,8.53
2023-05-26T18:36:20.870Z,8.67
2023-05-26T18:39:23.328Z,9.13
2023-05-26T18:42:25.720Z,10.95
2023-05-26T18:45:28.099Z,8.88
2023-05-26T18:48:30.479Z,9.33
2023-05-26T18:51:33.852Z,10.37
2023-05-26T18:54:36.397Z,9.68
2023-05-26T18:57:38.831Z,9.10
2023-05-26T19:00:42.772Z,10.18
2023-05-26T19:03:45.276Z,9.40
2023-05-26T19:06:47.800Z,8.73
2023-05-26T19:09:50.258Z,11.25
2023-05-26T19:12:52.678Z,8.85
2023-05-26T19:15:55.126Z,9.02
2023-05-26T19:18:58.098Z,10.27
2023-05-26T19:22:00.490Z,9.23
2023-05-26T19:25:04.469Z,10.48
2023-05-26T19:28:06.893Z,8.40
2023-05-26T19:31:09.473Z,9.30
2023-05-26T19:34:12.972Z,10.40
2023-05-26T19:37:15.508Z,9.73
2023-05-26T19:40:17.896Z,8.15
2023-05-26T19:43:21.335Z,10.18
2023-05-26T19:46:24.011Z,8.05
2023-05-26T19:49:29.210Z,10.17
2023-05-26T19:52:31.692Z,9.57
2023-05-26T19:55:34.105Z,9.02
2023-05-26T19:58:36.517Z,9.23
2023-05-26T20:01:39.801Z,9.20
2023-05-26T20:04:42.641Z,8.33
2023-05-26T20:07:45.079Z,10.53
2023-05-26T20:10:47.724Z,9.60
2023-05-26T20:13:50.105Z,10.27
2023-05-26T20:16:52.882Z,9.63
2023-05-26T20:20:11.964Z,9.63
2023-05-26T20:23:16.292Z,8.13
2023-05-26T20:26:18.732Z,9.02
2023-05-26T20:29:22.176Z,10.75
2023-05-26T20:32:25.400Z,8.40
2023-05-26T20:35:27.842Z,8.63
2023-05-26T20:38:30.876Z,8.50
2023-05-26T20:41:33.258Z,10.10
2023-05-26T20:44:36.108Z,7.85
2023-05-26T20:47:38.584Z,9.07
2023-05-26T20:50:41.317Z,8.37
2023-05-26T20:53:47.031Z,9.57
2023-05-26T20:56:49.458Z,7.72
2023-05-26T20:59:51.890Z,8.85
2023-05-26T21:02:54.389Z,8.50
2023-05-26T21:05:56.980Z,7.60
2023-05-26T21:08:59.432Z,8.20
2023-05-26T21:12:03.018Z,9.88
2023-05-26T21:15:05.958Z,8.32
2023-05-26T21:18:08.468Z,9.45
2023-05-26T21:21:11.174Z,9.37
2023-05-26T21:24:13.606Z,9.43
2023-05-26T21:27:16.337Z,8.93
2023-05-26T21:30:20.679Z,8.75
2023-05-26T21:33:23.428Z,9.10
2023-05-26T21:36:26.002Z,8.40
2023-05-26T21:39:28.483Z,8.13
2023-05-26T21:42:30.892Z,7.22
2023-05-26T21:45:33.755Z,7.65
2023-05-26T21:48:36.174Z,8.02
2023-05-26T21:51:38.670Z,8.17
2023-05-26T21:54:42.894Z,7.77
2023-05-26T21:57:45.794Z,9.35
2023-05-26T22:00:48.317Z,7.82
2023-05-26T22:03:51.156Z,7.15
2023-05-26T22:06:53.649Z,8.40
2023-05-26T22:09:56.089Z,8.67
2023-05-26T22:12:58.664Z,8.43
2023-05-26T22:16:01.569Z,7.07
2023-05-26T22:19:04.236Z,8.13
2023-05-26T22:22:06.705Z,8.03
2023-05-26T22:25:09.655Z,7.13
2023-05-26T22:28:12.311Z,9.38
2023-05-26T22:31:14.866Z,8.68
2023-05-26T22:34:17.312Z,6.50
2023-05-26T22:37:19.801Z,8.97
2023-05-26T22:40:22.312Z,7.40
2023-05-26T22:43:24.743Z,7.82
2023-05-26T22:46:27.289Z,8.30
2023-05-26T22:49:29.700Z,6.97
2023-05-26T22:52:33.092Z,7.87
2023-05-26T22:55:47.015Z,8.33
2023-05-26T22:58:53.801Z,7.38
2023-05-26T23:01:56.193Z,8.18
2023-05-26T23:04:58.667Z,6.82
2023-05-26T23:08:01.241Z,8.63
2023-05-26T23:11:04.000Z,7.93
2023-05-26T23:14:06.406Z,7.82
2023-05-26T23:17:08.913Z,6.90
2023-05-26T23:20:11.765Z,7.43
2023-05-26T23:23:14.400Z,7.37
2023-05-26T23:26:16.855Z,7.30
2023-05-26T23:29:26.945Z,7.13
2023-05-26T23:32:29.412Z,7.22
2023-05-26T23:35:31.849Z,7.50
2023-05-26T23:38:34.297Z,8.43
2023-05-26T23:41:36.792Z,7.77
2023-05-26T23:44:39.422Z,7.30
2023-05-26T23:47:41.979Z,7.18
2023-05-26T23:50:44.465Z,7.30
2023-05-26T23:53:47.014Z,7.33
2023-05-26T23:56:49.423Z,7.80
2023-05-26T23:59:51.923Z,7.15
